createdAt,value
2022-11-26T00:05:11.155Z,6.84
2022-11-26T00:11:34.206Z,6.87
2022-11-26T00:17:54.234Z,6.86
2022-11-26T00:24:17.173Z,6.78
2022-11-26T00:30:37.216Z,6.76
2022-11-26T00:37:00.223Z,6.76
2022-11-26T00:43:20.244Z,6.75
2022-11-26T00:49:43.149Z,6.75
2022-11-26T00:56:03.235Z,6.77
2022-11-26T01:02:26.258Z,6.79
2022-11-26T01:08:46.164Z,6.8
2022-11-26T01:15:09.213Z,6.78
2022-11-26T01:21:29.218Z,6.66
2022-11-26T01:27:52.172Z,6.58
2022-11-26T01:34:12.205Z,6.55
2022-11-26T01:40:35.182Z,6.55
2022-11-26T01:46:55.184Z,6.56
2022-11-26T01:53:18.180Z,6.57
2022-11-26T01:59:38.240Z,6.6
2022-11-26T02:06:01.170Z,6.62
2022-11-26T02:12:21.241Z,6.66
2022-11-26T02:18:44.188Z,6.71
2022-11-26T02:25:04.244Z,6.74
2022-11-26T02:31:27.311Z,6.75
2022-11-26T02:37:47.232Z,6.71
2022-11-26T02:44:10.169Z,6.61
2022-11-26T02:50:30.233Z,6.51
2022-11-26T02:56:53.219Z,6.38
2022-11-26T03:03:13.207Z,6.26
2022-11-26T03:09:36.219Z,6.17
2022-11-26T03:15:56.206Z,6.06
2022-11-26T03:22:19.171Z,5.92
2022-11-26T03:28:39.199Z,5.8
2022-11-26T03:35:02.204Z,5.68
2022-11-26T03:41:22.158Z,5.62
2022-11-26T03:47:45.259Z,5.54
2022-11-26T03:54:05.184Z,5.49
2022-11-26T04:00:28.224Z,5.43
2022-11-26T04:06:48.213Z,5.4
2022-11-26T04:29:54.200Z,5.08
2022-11-26T04:36:17.174Z,4.98
2022-11-26T04:42:37.239Z,4.89
2022-11-26T04:49:00.243Z,4.8
2022-11-26T04:55:20.238Z,4.75
2022-11-26T05:01:43.298Z,4.71
2022-11-26T05:08:03.239Z,4.68
2022-11-26T05:14:26.271Z,4.61
2022-11-26T05:20:46.160Z,4.5
2022-11-26T05:27:09.249Z,4.4
2022-11-26T05:33:29.222Z,4.32
2022-11-26T05:39:52.329Z,4.26
2022-11-26T05:46:12.266Z,4.17
2022-11-26T05:52:35.167Z,4.12
2022-11-26T05:58:55.258Z,4.13
2022-11-26T06:05:18.174Z,4.13
2022-11-26T06:11:38.234Z,4.06
2022-11-26T06:18:01.228Z,4.04
2022-11-26T06:24:21.273Z,4.01
2022-11-26T06:30:44.233Z,3.95
2022-11-26T06:37:04.146Z,3.88
2022-11-26T06:43:27.195Z,3.77
2022-11-26T06:49:47.245Z,3.71
2022-11-26T06:56:13.542Z,3.66
2022-11-26T07:02:30.346Z,3.67
2022-11-26T07:08:53.240Z,3.67
2022-11-26T07:15:13.276Z,3.67
2022-11-26T07:21:36.208Z,3.67
2022-11-26T07:27:56.218Z,3.72
2022-11-26T07:34:19.235Z,3.86
2022-11-26T07:40:39.243Z,4.05
2022-11-26T07:47:02.244Z,4.21
2022-11-26T07:53:22.200Z,4.33
2022-11-26T07:59:45.225Z,4.39
2022-11-26T08:06:05.216Z,4.44
2022-11-26T08:12:28.215Z,4.48
2022-11-26T08:18:48.258Z,4.51
2022-11-26T08:25:11.343Z,4.56
2022-11-26T08:31:31.254Z,4.62
2022-11-26T08:37:54.228Z,4.72
2022-11-26T08:44:14.139Z,4.86
2022-11-26T08:50:37.217Z,5.04
2022-11-26T08:56:57.379Z,5.19
2022-11-26T09:03:20.219Z,5.4
2022-11-26T09:09:40.272Z,5.64
2022-11-26T09:33:21.167Z,6.6
2022-11-26T09:39:44.143Z,6.91
2022-11-26T09:46:04.292Z,7.09
2022-11-26T09:52:27.246Z,7.24
2022-11-26T09:58:47.183Z,7.44
2022-11-26T10:05:10.222Z,7.64
2022-11-26T10:11:30.182Z,7.81
2022-11-26T10:17:53.198Z,7.96
2022-11-26T10:24:13.181Z,8.08
2022-11-26T10:30:36.211Z,8.18
2022-11-26T10:36:56.241Z,8.25
2022-11-26T10:43:19.228Z,8.3
2022-11-26T10:49:39.267Z,8.29
2022-11-26T10:56:02.163Z,8.18
2022-11-26T11:02:22.239Z,8.2
2022-11-26T11:08:45.201Z,8.23
2022-11-26T11:15:05.165Z,8.33
2022-11-26T11:21:28.207Z,8.46
2022-11-26T11:27:48.240Z,8.5
2022-11-26T11:34:11.240Z,8.5
2022-11-26T11:40:31.239Z,8.66
2022-11-26T11:46:54.211Z,8.93
2022-11-26T11:53:14.211Z,9.04
2022-11-26T11:59:37.179Z,8.98
2022-11-26T12:05:57.196Z,8.93
2022-11-26T12:12:20.177Z,8.97
2022-11-26T12:18:40.180Z,8.98
2022-11-26T12:25:03.199Z,9.01
2022-11-26T12:31:23.211Z,9.03
2022-11-26T12:37:46.208Z,9.13
2022-11-26T12:44:06.172Z,9.26
2022-11-26T12:50:29.160Z,9.38
2022-11-26T12:56:49.186Z,9.45
2022-11-26T13:03:12.246Z,9.41
2022-11-26T13:09:32.201Z,9.31
2022-11-26T13:15:55.153Z,9.29
2022-11-26T13:22:15.177Z,9.26
2022-11-26T13:28:38.171Z,9.26
2022-11-26T13:34:58.173Z,9.34
2022-11-26T13:41:21.213Z,9.37
2022-11-26T13:47:41.143Z,9.37
2022-11-26T13:54:04.170Z,9.37
2022-11-26T14:00:24.223Z,9.29
2022-11-26T14:06:47.223Z,9.27
2022-11-26T14:13:07.200Z,9.33
2022-11-26T14:19:30.223Z,9.34
2022-11-26T14:25:50.243Z,9.29
2022-11-26T14:32:13.215Z,9.23
2022-11-26T14:55:18.703Z,9.1
2022-11-26T15:01:39.144Z,8.92
2022-11-26T15:08:02.172Z,8.74
2022-11-26T15:14:22.181Z,8.55
2022-11-26T15:20:45.206Z,8.37
2022-11-26T15:27:05.145Z,8.25
2022-11-26T15:33:28.193Z,8.1
2022-11-26T15:39:48.254Z,7.93
2022-11-26T15:46:11.254Z,7.8
2022-11-26T15:52:31.277Z,7.68
2022-11-26T15:58:54.203Z,7.59
2022-11-26T16:05:14.206Z,7.52
2022-11-26T16:11:37.192Z,7.44
2022-11-26T16:17:57.211Z,7.35
2022-11-26T16:24:20.312Z,7.25
2022-11-26T16:30:40.335Z,7.18
2022-11-26T16:37:03.420Z,7.12
2022-11-26T16:43:23.200Z,7.04
2022-11-26T16:49:46.220Z,7.01
2022-11-26T16:56:06.182Z,6.97
2022-11-26T17:02:29.292Z,6.93
2022-11-26T17:08:49.949Z,6.91
2022-11-26T17:15:12.179Z,6.88
2022-11-26T17:21:32.197Z,6.85
2022-11-26T17:27:55.228Z,6.8
2022-11-26T17:34:15.159Z,6.76
2022-11-26T17:40:38.225Z,6.71
2022-11-26T17:47:16.215Z,6.66
2022-11-26T17:53:21.165Z,6.58
2022-11-26T17:59:41.502Z,6.51
2022-11-26T18:06:04.196Z,6.45
2022-11-26T18:12:25.348Z,6.37
2022-11-26T18:18:47.256Z,6.25
2022-11-26T18:25:07.205Z,6.17
2022-11-26T18:31:30.262Z,6.11
2022-11-26T18:37:50.193Z,6.08
2022-11-26T18:44:13.222Z,6.05
2022-11-26T18:50:33.165Z,5.97
2022-11-26T18:56:56.168Z,5.94
2022-11-26T19:03:16.264Z,5.89
2022-11-26T19:09:39.474Z,5.86
2022-11-26T19:15:59.193Z,5.81
2022-11-26T19:22:22.188Z,5.81
2022-11-26T19:28:42.219Z,5.77
2022-11-26T19:35:06.179Z,5.7
2022-11-26T19:41:25.897Z,5.64
2022-11-26T19:57:35.599Z,5.48
2022-11-26T20:03:55.155Z,5.41
2022-11-26T20:10:18.142Z,5.41
2022-11-26T20:16:38.321Z,5.36
2022-11-26T20:23:01.210Z,5.25
2022-11-26T20:29:21.208Z,5.19
2022-11-26T20:35:44.194Z,5.14
2022-11-26T20:42:04.286Z,5.14
2022-11-26T20:48:27.215Z,5.12
2022-11-26T20:54:50.780Z,5.09
2022-11-26T21:01:10.362Z,5.09
2022-11-26T21:07:30.219Z,5.08
2022-11-26T21:13:53.290Z,5.06
2022-11-26T21:20:13.212Z,5.04
2022-11-26T21:26:36.200Z,5
2022-11-26T21:32:56.258Z,4.97
2022-11-26T21:39:19.174Z,4.92
2022-11-26T21:45:39.198Z,4.87
2022-11-26T21:52:02.252Z,4.83
2022-11-26T21:58:22.195Z,4.8
2022-11-26T22:04:45.140Z,4.8
2022-11-26T22:11:05.225Z,4.74
2022-11-26T22:17:28.221Z,4.71
2022-11-26T22:23:48.183Z,4.7
2022-11-26T22:30:11.298Z,4.7
2022-11-26T22:36:31.207Z,4.68
2022-11-26T22:42:54.225Z,4.67
2022-11-26T22:49:14.274Z,4.67
2022-11-26T22:55:37.219Z,4.65
2022-11-26T23:19:51.187Z,4.67
2022-11-26T23:26:11.174Z,4.7
2022-11-26T23:32:34.155Z,4.71
2022-11-26T23:38:54.267Z,4.69
2022-11-26T23:45:17.179Z,4.66
2022-11-26T23:51:37.197Z,4.64
2022-11-26T23:58:00.239Z,4.62
